Terminal Aerodrome Forecast
Issued by NWS

Home | Current Version | Previous Version | Graphics & Text | Print | Product List | Glossary On
Versions: 1 2 3 4 5 6 7 8 9 10 11 12 13 14
000
FTUS43 KLSX 170416 AAA
TAFSUS
TAF AMD
KSUS 170416Z 1704/1724 29006KT P6SM OVC022
      TEMPO 1704/1706 BKN018
     FM170600 29004KT P6SM SCT020
     FM171200 VRB03KT P6SM FEW250
     FM171800 26007KT P6SM SKC=

USA.gov is the U.S. government's official web portal to all federal, state and local government web resources and services.